Allisonia, Virginia
Current Conditions -  °F | °C
As of 10:55 PM on Thursday 18 Dec 2014 (Local Time) from KPSK Reporting Station
Overcast Overcast  
Wind Chill: 29°   Ceiling: 6000
Heat Index: 37°   Visibility: 10mi
Dew Point: 24°   Wind: 10mph
Humidity: 61%   Direction: 270°W
Pressure: 30.1"   Gusts: NA
Location:  36.9752°N, 80.6434°W
Report Text: KPSK 190355Z AUTO 27009KT 10SM OVC060 03/M04 A3010 RMK AO2 T00251044
Loading
Personal Weather Stations






























Interactive Weather Map New forecast layout! Learn more

10-Day Weather Forecast

Advertisements
Track Severe Weather on mobile